Pinewood, Texas
Current Conditions -  °F | °C
As of 8:53 PM on Sunday 23 Nov 2014 (Local Time) from KGGG Reporting Station
Clear Clear  
Wind Chill: 64°   Ceiling: Unl
Heat Index: 64°   Visibility: 10mi
Dew Point: 44°   Wind: 15mph
Humidity: 48%   Direction: 290°WNW
Pressure: 29.6"   Gusts: NA
Location:  32.4573°N, 94.6541°W
Report Text: KGGG 240253Z 29013KT 10SM CLR 18/07 A2960 RMK AO2 SLP018 T01780067 53042
Loading
Personal Weather Stations






























Interactive Weather Map New forecast layout! Learn more

10-Day Weather Forecast

Advertisements
Track Severe Weather on mobile